MUC weather

Munich Airport
Munich, Bavaria, Germany

Public forecast

Using degrees Celsius for public forecast. Weather courtesy of forecast.io.

METAR (pilot weather report)

Retrieved 2018/04/25 04:20 UTC (17 minutes ago):

EDDM 250420Z 25006KT CAVOK 09/06 Q1014 NOSIG

TAF (pilot weather forecast)

Forecast is more than 12 hours old.

Retrieved 2018/04/24 00:27 UTC (1 day ago):

TAF EDDM 242300Z 2500/2606 VRB03KT CAVOK BECMG 2506/2509 26015G25KT TEMPO 2510/2515 28020G35KT BECMG 2516/2518 28007KT TEMPO 2602/2606 RA